KCFV/CFV METAR and TAF weather

Enter ICAO airport designator
Station Type Date Time Source
KCFV METAR 2018/07/21 12:52 UTC NOAA

KCFV 211252Z AUTO 08007KT 10SM CLR 24/21 A2996 RMK AO2 SLP137 T02440211 $


Station Type Date Time Source
KCFV Decoded METAR 2018/07/21 12:52 UTC NOAA

COFFEYVILLE MUNICIPAL AIRPORT , KS, United States (KCFV) 37-05N 95-34W 225M
Jul 21, 2018 - 08:52 AM EDT / 2018.07.21 1252 UTC
Wind: from the E (080 degrees) at 8 MPH (7 KT):0
Visibility: 10 mile(s):0
Sky conditions: clear
Temperature: 75.9 F (24.4 C)
Dew Point: 70.0 F (21.1 C)
Relative Humidity: 81%
Pressure (altimeter): 29.96 in. Hg (1014 hPa)
ob: KCFV 211252Z AUTO 08007KT 10SM CLR 24/21 A2996 RMK AO2 SLP137 T02440211
cycle: 13

Station Type Date Time Source
KCFV TAF UTC NOAA

Error!


Example: see airport list